sensor_id;sensor_type;location;lat;lon;timestamp;temperature;humidity
569;DHT22;269;48.884;9.192;2023-04-25T00:00:06;9.10;99.90
569;DHT22;269;48.884;9.192;2023-04-25T00:02:34;9.10;99.90
569;DHT22;269;48.884;9.192;2023-04-25T00:05:01;9.10;99.90
569;DHT22;269;48.884;9.192;2023-04-25T00:07:30;9.10;99.90
569;DHT22;269;48.884;9.192;2023-04-25T00:09:59;9.10;99.90
569;DHT22;269;48.884;9.192;2023-04-25T00:12:26;9.10;99.90
569;DHT22;269;48.884;9.192;2023-04-25T00:14:54;9.10;99.90
569;DHT22;269;48.884;9.192;2023-04-25T00:17:23;9.10;99.90
569;DHT22;269;48.884;9.192;2023-04-25T00:19:50;9.10;99.90
569;DHT22;269;48.884;9.192;2023-04-25T00:22:18;9.10;99.90
569;DHT22;269;48.884;9.192;2023-04-25T00:24:45;9.10;99.90
569;DHT22;269;48.884;9.192;2023-04-25T00:27:14;9.00;99.90
569;DHT22;269;48.884;9.192;2023-04-25T00:29:41;8.90;99.90
569;DHT22;269;48.884;9.192;2023-04-25T00:32:08;8.90;99.90
569;DHT22;269;48.884;9.192;2023-04-25T00:34:35;9.10;99.90
569;DHT22;269;48.884;9.192;2023-04-25T00:37:02;8.80;99.90
569;DHT22;269;48.884;9.192;2023-04-25T00:39:30;8.80;99.90
569;DHT22;269;48.884;9.192;2023-04-25T00:41:58;8.70;99.90
569;DHT22;269;48.884;9.192;2023-04-25T00:44:27;9.00;99.90
569;DHT22;269;48.884;9.192;2023-04-25T00:46:55;8.70;99.90
569;DHT22;269;48.884;9.192;2023-04-25T00:49:22;8.70;99.90
569;DHT22;269;48.884;9.192;2023-04-25T00:51:49;8.70;99.90
569;DHT22;269;48.884;9.192;2023-04-25T00:54:16;8.70;99.90
569;DHT22;269;48.884;9.192;2023-04-25T00:56:44;8.70;99.90
569;DHT22;269;48.884;9.192;2023-04-25T00:59:12;8.80;99.90
569;DHT22;269;48.884;9.192;2023-04-25T01:01:41;8.80;99.90
569;DHT22;269;48.884;9.192;2023-04-25T01:04:08;8.80;99.90
569;DHT22;269;48.884;9.192;2023-04-25T01:06:36;8.80;99.90
569;DHT22;269;48.884;9.192;2023-04-25T01:09:04;8.80;99.90
569;DHT22;269;48.884;9.192;2023-04-25T01:11:31;8.70;99.90
569;DHT22;269;48.884;9.192;2023-04-25T01:13:58;8.80;99.90
569;DHT22;269;48.884;9.192;2023-04-25T01:16:25;8.70;99.90
569;DHT22;269;48.884;9.192;2023-04-25T01:18:54;8.80;99.90
569;DHT22;269;48.884;9.192;2023-04-25T01:21:22;8.70;99.90
569;DHT22;269;48.884;9.192;2023-04-25T01:23:52;8.70;99.90
569;DHT22;269;48.884;9.192;2023-04-25T01:26:21;8.70;99.90
569;DHT22;269;48.884;9.192;2023-04-25T01:28:48;8.70;99.90
569;DHT22;269;48.884;9.192;2023-04-25T01:31:16;8.70;99.90
569;DHT22;269;48.884;9.192;2023-04-25T01:33:44;8.70;99.90
569;DHT22;269;48.884;9.192;2023-04-25T01:36:11;8.70;99.90
569;DHT22;269;48.884;9.192;2023-04-25T01:38:41;8.70;99.90
569;DHT22;269;48.884;9.192;2023-04-25T01:41:09;8.70;99.90
569;DHT22;269;48.884;9.192;2023-04-25T01:43:36;8.70;99.90
569;DHT22;269;48.884;9.192;2023-04-25T01:46:04;8.70;99.90
569;DHT22;269;48.884;9.192;2023-04-25T01:48:31;8.70;99.90
569;DHT22;269;48.884;9.192;2023-04-25T01:50:58;8.70;99.90
569;DHT22;269;48.884;9.192;2023-04-25T01:53:25;8.70;99.90
569;DHT22;269;48.884;9.192;2023-04-25T01:55:54;8.70;99.90
569;DHT22;269;48.884;9.192;2023-04-25T01:58:21;8.70;99.90
569;DHT22;269;48.884;9.192;2023-04-25T02:00:48;8.60;99.90
569;DHT22;269;48.884;9.192;2023-04-25T02:03:15;8.60;99.90
569;DHT22;269;48.884;9.192;2023-04-25T02:05:42;8.50;99.90
569;DHT22;269;48.884;9.192;2023-04-25T02:08:09;8.50;99.90
569;DHT22;269;48.884;9.192;2023-04-25T02:10:36;8.50;99.90
569;DHT22;269;48.884;9.192;2023-04-25T02:13:05;8.50;99.90
569;DHT22;269;48.884;9.192;2023-04-25T02:15:32;8.40;99.90
569;DHT22;269;48.884;9.192;2023-04-25T02:17:59;8.40;99.90
569;DHT22;269;48.884;9.192;2023-04-25T02:20:29;8.40;99.90
569;DHT22;269;48.884;9.192;2023-04-25T02:22:56;8.40;99.90
569;DHT22;269;48.884;9.192;2023-04-25T02:25:23;8.40;99.90
569;DHT22;269;48.884;9.192;2023-04-25T02:27:50;8.40;99.90
569;DHT22;269;48.884;9.192;2023-04-25T02:30:19;8.40;99.90
569;DHT22;269;48.884;9.192;2023-04-25T02:32:46;8.50;99.90
569;DHT22;269;48.884;9.192;2023-04-25T02:35:13;8.50;99.90
569;DHT22;269;48.884;9.192;2023-04-25T02:37:42;8.50;99.90
569;DHT22;269;48.884;9.192;2023-04-25T02:40:09;8.50;99.90
569;DHT22;269;48.884;9.192;2023-04-25T02:42:36;8.50;99.90
569;DHT22;269;48.884;9.192;2023-04-25T02:45:04;8.50;99.90
569;DHT22;269;48.884;9.192;2023-04-25T02:47:32;8.50;99.90
569;DHT22;269;48.884;9.192;2023-04-25T02:49:59;8.50;99.90
569;DHT22;269;48.884;9.192;2023-04-25T02:52:27;8.40;99.90
569;DHT22;269;48.884;9.192;2023-04-25T02:54:54;8.40;99.90
569;DHT22;269;48.884;9.192;2023-04-25T02:57:21;8.40;99.90
569;DHT22;269;48.884;9.192;2023-04-25T02:59:48;8.40;99.90
569;DHT22;269;48.884;9.192;2023-04-25T03:02:15;8.40;99.90
569;DHT22;269;48.884;9.192;2023-04-25T03:04:43;8.40;99.90
569;DHT22;269;48.884;9.192;2023-04-25T03:07:11;8.40;99.90
569;DHT22;269;48.884;9.192;2023-04-25T03:09:38;8.40;99.90
569;DHT22;269;48.884;9.192;2023-04-25T03:12:05;8.40;99.90
569;DHT22;269;48.884;9.192;2023-04-25T03:14:33;8.40;99.90
569;DHT22;269;48.884;9.192;2023-04-25T03:16:59;8.40;99.90
569;DHT22;269;48.884;9.192;2023-04-25T03:19:26;8.40;99.90
569;DHT22;269;48.884;9.192;2023-04-25T03:21:55;8.40;99.90
569;DHT22;269;48.884;9.192;2023-04-25T03:24:22;8.40;99.90
569;DHT22;269;48.884;9.192;2023-04-25T03:26:49;8.40;99.90
569;DHT22;269;48.884;9.192;2023-04-25T03:29:17;8.50;99.90
569;DHT22;269;48.884;9.192;2023-04-25T03:31:44;8.50;99.90
569;DHT22;269;48.884;9.192;2023-04-25T03:34:11;8.50;99.90
569;DHT22;269;48.884;9.192;2023-04-25T03:36:40;8.50;99.90
569;DHT22;269;48.884;9.192;2023-04-25T03:39:09;8.50;99.90
569;DHT22;269;48.884;9.192;2023-04-25T03:41:36;8.50;99.90
569;DHT22;269;48.884;9.192;2023-04-25T03:44:03;8.50;99.90
569;DHT22;269;48.884;9.192;2023-04-25T03:46:30;8.50;99.90
569;DHT22;269;48.884;9.192;2023-04-25T03:48:57;8.50;99.90
569;DHT22;269;48.884;9.192;2023-04-25T03:51:25;8.40;99.90
569;DHT22;269;48.884;9.192;2023-04-25T03:53:52;8.40;99.90
569;DHT22;269;48.884;9.192;2023-04-25T03:56:20;8.40;99.90
569;DHT22;269;48.884;9.192;2023-04-25T03:58:48;8.40;99.90
569;DHT22;269;48.884;9.192;2023-04-25T04:01:15;8.40;99.90
569;DHT22;269;48.884;9.192;2023-04-25T04:03:42;8.30;99.90
569;DHT22;269;48.884;9.192;2023-04-25T04:06:09;8.30;99.90
569;DHT22;269;48.884;9.192;2023-04-25T04:08:36;8.30;99.90
569;DHT22;269;48.884;9.192;2023-04-25T04:11:03;8.30;99.90
569;DHT22;269;48.884;9.192;2023-04-25T04:13:32;8.30;99.90
569;DHT22;269;48.884;9.192;2023-04-25T04:15:59;8.30;99.90
569;DHT22;269;48.884;9.192;2023-04-25T04:18:26;8.20;99.90
569;DHT22;269;48.884;9.192;2023-04-25T04:20:53;8.20;99.90
569;DHT22;269;48.884;9.192;2023-04-25T04:23:20;8.20;99.90
569;DHT22;269;48.884;9.192;2023-04-25T04:25:48;8.20;99.90
569;DHT22;269;48.884;9.192;2023-04-25T04:28:15;8.20;99.90
569;DHT22;269;48.884;9.192;2023-04-25T04:30:44;8.10;99.90
569;DHT22;269;48.884;9.192;2023-04-25T04:33:12;8.10;99.90
569;DHT22;269;48.884;9.192;2023-04-25T04:35:41;8.10;99.90
569;DHT22;269;48.884;9.192;2023-04-25T04:38:08;8.20;99.90
569;DHT22;269;48.884;9.192;2023-04-25T04:40:36;8.30;99.90
569;DHT22;269;48.884;9.192;2023-04-25T04:43:04;8.30;99.90
569;DHT22;269;48.884;9.192;2023-04-25T04:45:31;8.30;99.90
569;DHT22;269;48.884;9.192;2023-04-25T04:48:00;8.40;99.90
569;DHT22;269;48.884;9.192;2023-04-25T04:50:28;8.40;99.90
569;DHT22;269;48.884;9.192;2023-04-25T04:52:55;8.50;99.90
569;DHT22;269;48.884;9.192;2023-04-25T04:55:21;8.50;99.90
569;DHT22;269;48.884;9.192;2023-04-25T04:57:49;8.60;99.90
569;DHT22;269;48.884;9.192;2023-04-25T05:00:16;8.60;99.90
569;DHT22;269;48.884;9.192;2023-04-25T05:02:43;8.60;99.90
569;DHT22;269;48.884;9.192;2023-04-25T05:05:12;8.60;99.90
569;DHT22;269;48.884;9.192;2023-04-25T05:07:39;8.70;99.90
569;DHT22;269;48.884;9.192;2023-04-25T05:10:07;8.70;99.90
569;DHT22;269;48.884;9.192;2023-04-25T05:12:34;8.70;99.90
569;DHT22;269;48.884;9.192;2023-04-25T05:15:01;8.80;99.90
569;DHT22;269;48.884;9.192;2023-04-25T05:17:28;8.80;99.90
569;DHT22;269;48.884;9.192;2023-04-25T05:19:55;8.80;99.90
569;DHT22;269;48.884;9.192;2023-04-25T05:22:24;8.90;99.90
569;DHT22;269;48.884;9.192;2023-04-25T05:24:51;9.00;99.90
569;DHT22;269;48.884;9.192;2023-04-25T05:27:18;9.00;99.90
569;DHT22;269;48.884;9.192;2023-04-25T05:29:45;9.10;99.90
569;DHT22;269;48.884;9.192;2023-04-25T05:32:12;9.20;99.90
569;DHT22;269;48.884;9.192;2023-04-25T05:34:39;9.20;99.90
569;DHT22;269;48.884;9.192;2023-04-25T05:37:07;9.30;99.90
569;DHT22;269;48.884;9.192;2023-04-25T05:39:35;9.30;99.90
569;DHT22;269;48.884;9.192;2023-04-25T05:42:03;9.30;99.90
569;DHT22;269;48.884;9.192;2023-04-25T05:44:30;9.20;99.90
569;DHT22;269;48.884;9.192;2023-04-25T05:46:57;9.10;99.90
569;DHT22;269;48.884;9.192;2023-04-25T05:49:24;9.10;99.90
569;DHT22;269;48.884;9.192;2023-04-25T05:51:52;9.00;99.90
569;DHT22;269;48.884;9.192;2023-04-25T05:54:19;9.00;99.90
569;DHT22;269;48.884;9.192;2023-04-25T05:56:47;8.90;99.90
569;DHT22;269;48.884;9.192;2023-04-25T05:59:14;8.80;99.90
569;DHT22;269;48.884;9.192;2023-04-25T06:01:41;8.90;99.90
569;DHT22;269;48.884;9.192;2023-04-25T06:04:08;9.00;99.90
569;DHT22;269;48.884;9.192;2023-04-25T06:06:36;9.00;99.90
569;DHT22;269;48.884;9.192;2023-04-25T06:09:03;9.10;99.90
569;DHT22;269;48.884;9.192;2023-04-25T06:11:30;9.20;99.90
569;DHT22;269;48.884;9.192;2023-04-25T06:13:58;9.10;99.90
569;DHT22;269;48.884;9.192;2023-04-25T06:16:25;9.20;99.90
569;DHT22;269;48.884;9.192;2023-04-25T06:18:53;9.40;99.90
569;DHT22;269;48.884;9.192;2023-04-25T06:21:20;9.20;99.90
569;DHT22;269;48.884;9.192;2023-04-25T06:23:47;9.20;99.90
569;DHT22;269;48.884;9.192;2023-04-25T06:26:14;9.10;99.90
569;DHT22;269;48.884;9.192;2023-04-25T06:28:41;9.10;99.90
569;DHT22;269;48.884;9.192;2023-04-25T06:31:09;9.10;99.90
569;DHT22;269;48.884;9.192;2023-04-25T06:33:36;9.20;99.90
569;DHT22;269;48.884;9.192;2023-04-25T06:36:03;9.20;99.90
569;DHT22;269;48.884;9.192;2023-04-25T06:38:31;9.20;99.90
569;DHT22;269;48.884;9.192;2023-04-25T06:40:58;9.20;99.90
569;DHT22;269;48.884;9.192;2023-04-25T06:43:25;9.40;99.90
569;DHT22;269;48.884;9.192;2023-04-25T06:45:52;9.50;99.90
569;DHT22;269;48.884;9.192;2023-04-25T06:48:20;9.60;99.90
569;DHT22;269;48.884;9.192;2023-04-25T06:50:47;9.80;99.90
569;DHT22;269;48.884;9.192;2023-04-25T06:53:14;9.90;99.90
569;DHT22;269;48.884;9.192;2023-04-25T06:55:42;9.90;99.90
569;DHT22;269;48.884;9.192;2023-04-25T06:58:09;10.10;99.90
569;DHT22;269;48.884;9.192;2023-04-25T07:00:36;10.20;99.90
569;DHT22;269;48.884;9.192;2023-04-25T07:03:03;10.40;99.90
569;DHT22;269;48.884;9.192;2023-04-25T07:05:31;10.50;99.90
569;DHT22;269;48.884;9.192;2023-04-25T07:07:58;10.60;99.90
569;DHT22;269;48.884;9.192;2023-04-25T07:10:26;10.60;99.90
569;DHT22;269;48.884;9.192;2023-04-25T07:12:53;10.70;99.90
569;DHT22;269;48.884;9.192;2023-04-25T07:15:20;10.80;99.90
569;DHT22;269;48.884;9.192;2023-04-25T07:17:47;10.80;99.90
569;DHT22;269;48.884;9.192;2023-04-25T07:20:14;10.80;99.90
569;DHT22;269;48.884;9.192;2023-04-25T07:22:43;10.80;99.90
569;DHT22;269;48.884;9.192;2023-04-25T07:25:10;10.70;99.90
569;DHT22;269;48.884;9.192;2023-04-25T07:27:37;10.60;99.90
569;DHT22;269;48.884;9.192;2023-04-25T07:30:06;10.60;99.90
569;DHT22;269;48.884;9.192;2023-04-25T07:32:33;10.60;99.90
569;DHT22;269;48.884;9.192;2023-04-25T07:35:00;10.50;99.90
569;DHT22;269;48.884;9.192;2023-04-25T07:37:27;10.50;99.90
569;DHT22;269;48.884;9.192;2023-04-25T07:39:55;10.50;99.90
569;DHT22;269;48.884;9.192;2023-04-25T07:42:22;10.50;99.90
569;DHT22;269;48.884;9.192;2023-04-25T07:44:49;10.50;99.90
569;DHT22;269;48.884;9.192;2023-04-25T07:47:17;10.50;99.90
569;DHT22;269;48.884;9.192;2023-04-25T07:49:45;10.50;99.90
569;DHT22;269;48.884;9.192;2023-04-25T07:52:12;10.40;99.90
569;DHT22;269;48.884;9.192;2023-04-25T07:54:39;10.40;99.90
569;DHT22;269;48.884;9.192;2023-04-25T07:57:08;10.40;99.90
569;DHT22;269;48.884;9.192;2023-04-25T07:59:35;10.40;99.90
569;DHT22;269;48.884;9.192;2023-04-25T08:02:02;10.40;99.90
569;DHT22;269;48.884;9.192;2023-04-25T08:04:29;10.40;99.90
569;DHT22;269;48.884;9.192;2023-04-25T08:06:56;10.40;99.90
569;DHT22;269;48.884;9.192;2023-04-25T08:09:23;10.40;99.90
569;DHT22;269;48.884;9.192;2023-04-25T08:11:50;10.40;99.90
569;DHT22;269;48.884;9.192;2023-04-25T08:14:19;10.40;99.90
569;DHT22;269;48.884;9.192;2023-04-25T08:16:46;10.40;99.90
569;DHT22;269;48.884;9.192;2023-04-25T08:19:13;10.40;99.90
569;DHT22;269;48.884;9.192;2023-04-25T08:21:40;10.40;99.90
569;DHT22;269;48.884;9.192;2023-04-25T08:24:07;10.50;99.90
569;DHT22;269;48.884;9.192;2023-04-25T08:26:34;10.50;99.90
569;DHT22;269;48.884;9.192;2023-04-25T08:29:02;10.50;99.90
569;DHT22;269;48.884;9.192;2023-04-25T08:31:31;10.50;99.90
569;DHT22;269;48.884;9.192;2023-04-25T08:33:58;10.50;99.90
569;DHT22;269;48.884;9.192;2023-04-25T08:36:26;10.60;99.90
569;DHT22;269;48.884;9.192;2023-04-25T08:38:53;10.50;99.90
569;DHT22;269;48.884;9.192;2023-04-25T08:41:21;10.30;99.90
569;DHT22;269;48.884;9.192;2023-04-25T08:43:49;10.50;99.90
569;DHT22;269;48.884;9.192;2023-04-25T08:46:18;10.40;99.90
569;DHT22;269;48.884;9.192;2023-04-25T08:48:47;10.30;99.90
569;DHT22;269;48.884;9.192;2023-04-25T08:51:21;10.20;99.90
569;DHT22;269;48.884;9.192;2023-04-25T08:53:51;10.10;99.90
569;DHT22;269;48.884;9.192;2023-04-25T08:56:18;10.10;99.90
569;DHT22;269;48.884;9.192;2023-04-25T08:58:48;10.00;99.90
569;DHT22;269;48.884;9.192;2023-04-25T09:01:15;10.00;99.90
569;DHT22;269;48.884;9.192;2023-04-25T09:03:43;9.90;99.90
569;DHT22;269;48.884;9.192;2023-04-25T09:06:12;9.90;99.90
569;DHT22;269;48.884;9.192;2023-04-25T09:08:39;9.80;99.90
569;DHT22;269;48.884;9.192;2023-04-25T09:11:06;9.80;99.90
569;DHT22;269;48.884;9.192;2023-04-25T09:13:34;9.60;99.90
569;DHT22;269;48.884;9.192;2023-04-25T09:16:01;9.40;99.90
569;DHT22;269;48.884;9.192;2023-04-25T09:18:29;9.10;99.90
569;DHT22;269;48.884;9.192;2023-04-25T09:21:04;8.90;99.90
569;DHT22;269;48.884;9.192;2023-04-25T09:23:39;8.80;99.90
569;DHT22;269;48.884;9.192;2023-04-25T09:26:07;8.70;99.90
569;DHT22;269;48.884;9.192;2023-04-25T09:28:34;8.70;99.90
569;DHT22;269;48.884;9.192;2023-04-25T09:31:03;8.70;99.90
569;DHT22;269;48.884;9.192;2023-04-25T09:33:32;8.80;99.90
569;DHT22;269;48.884;9.192;2023-04-25T09:36:03;8.70;99.90
569;DHT22;269;48.884;9.192;2023-04-25T09:38:39;8.60;99.90
569;DHT22;269;48.884;9.192;2023-04-25T09:41:07;8.50;99.90
569;DHT22;269;48.884;9.192;2023-04-25T09:43:35;8.50;99.90
569;DHT22;269;48.884;9.192;2023-04-25T09:46:02;8.50;99.90
569;DHT22;269;48.884;9.192;2023-04-25T09:48:29;8.50;99.90
569;DHT22;269;48.884;9.192;2023-04-25T09:51:08;8.50;99.90
569;DHT22;269;48.884;9.192;2023-04-25T09:53:38;8.50;99.90
569;DHT22;269;48.884;9.192;2023-04-25T09:56:06;8.40;99.90
569;DHT22;269;48.884;9.192;2023-04-25T09:58:34;8.40;99.90
569;DHT22;269;48.884;9.192;2023-04-25T10:01:03;8.40;99.90
569;DHT22;269;48.884;9.192;2023-04-25T10:03:32;8.40;99.90
569;DHT22;269;48.884;9.192;2023-04-25T10:06:00;8.30;99.90
569;DHT22;269;48.884;9.192;2023-04-25T10:08:31;8.10;99.90
569;DHT22;269;48.884;9.192;2023-04-25T10:11:02;8.00;99.90
569;DHT22;269;48.884;9.192;2023-04-25T10:13:30;7.80;99.90
569;DHT22;269;48.884;9.192;2023-04-25T10:15:58;7.70;99.90
569;DHT22;269;48.884;9.192;2023-04-25T10:18:26;7.80;99.90
569;DHT22;269;48.884;9.192;2023-04-25T10:20:54;7.70;99.90
569;DHT22;269;48.884;9.192;2023-04-25T10:23:23;7.70;99.90
569;DHT22;269;48.884;9.192;2023-04-25T10:25:52;7.60;99.90
569;DHT22;269;48.884;9.192;2023-04-25T10:28:21;7.50;99.90
569;DHT22;269;48.884;9.192;2023-04-25T10:30:58;7.40;99.90
569;DHT22;269;48.884;9.192;2023-04-25T10:33:32;7.40;99.90
569;DHT22;269;48.884;9.192;2023-04-25T10:36:08;7.40;99.90
569;DHT22;269;48.884;9.192;2023-04-25T10:38:36;7.30;99.90
569;DHT22;269;48.884;9.192;2023-04-25T10:41:04;7.30;99.90
569;DHT22;269;48.884;9.192;2023-04-25T10:43:36;7.30;99.90
569;DHT22;269;48.884;9.192;2023-04-25T10:46:16;7.30;99.90
569;DHT22;269;48.884;9.192;2023-04-25T10:48:48;7.40;99.90
569;DHT22;269;48.884;9.192;2023-04-25T10:51:18;7.50;99.90
569;DHT22;269;48.884;9.192;2023-04-25T10:53:46;7.50;99.90
569;DHT22;269;48.884;9.192;2023-04-25T10:56:17;7.60;99.90
569;DHT22;269;48.884;9.192;2023-04-25T10:58:46;7.60;99.90
569;DHT22;269;48.884;9.192;2023-04-25T11:01:14;7.70;99.90
569;DHT22;269;48.884;9.192;2023-04-25T11:03:42;7.70;99.90
569;DHT22;269;48.884;9.192;2023-04-25T11:06:18;7.60;99.90
569;DHT22;269;48.884;9.192;2023-04-25T11:08:48;7.50;99.90
569;DHT22;269;48.884;9.192;2023-04-25T11:11:16;7.40;99.90
569;DHT22;269;48.884;9.192;2023-04-25T11:13:43;7.40;99.90
569;DHT22;269;48.884;9.192;2023-04-25T11:16:11;7.40;99.90
569;DHT22;269;48.884;9.192;2023-04-25T11:18:41;7.40;99.90
569;DHT22;269;48.884;9.192;2023-04-25T11:21:08;7.40;99.90
569;DHT22;269;48.884;9.192;2023-04-25T11:23:35;7.50;99.90
569;DHT22;269;48.884;9.192;2023-04-25T11:26:02;7.50;99.90
569;DHT22;269;48.884;9.192;2023-04-25T11:28:29;7.60;99.90
569;DHT22;269;48.884;9.192;2023-04-25T11:30:56;7.60;99.90
569;DHT22;269;48.884;9.192;2023-04-25T11:33:25;7.60;99.90
569;DHT22;269;48.884;9.192;2023-04-25T11:35:53;7.70;99.90
569;DHT22;269;48.884;9.192;2023-04-25T11:38:21;7.80;99.90
569;DHT22;269;48.884;9.192;2023-04-25T11:40:52;7.80;99.90
569;DHT22;269;48.884;9.192;2023-04-25T11:43:20;7.90;99.90
569;DHT22;269;48.884;9.192;2023-04-25T11:45:48;8.00;99.90
569;DHT22;269;48.884;9.192;2023-04-25T11:48:15;8.10;99.90
569;DHT22;269;48.884;9.192;2023-04-25T11:50:44;8.10;99.90
569;DHT22;269;48.884;9.192;2023-04-25T11:53:11;8.10;99.90
569;DHT22;269;48.884;9.192;2023-04-25T11:55:39;8.10;99.90
569;DHT22;269;48.884;9.192;2023-04-25T11:58:06;8.00;99.90
569;DHT22;269;48.884;9.192;2023-04-25T12:00:34;7.90;99.90
569;DHT22;269;48.884;9.192;2023-04-25T12:03:01;7.90;99.90
569;DHT22;269;48.884;9.192;2023-04-25T12:05:30;7.80;99.90
569;DHT22;269;48.884;9.192;2023-04-25T12:08:09;7.80;99.90
569;DHT22;269;48.884;9.192;2023-04-25T12:10:38;7.80;99.90
569;DHT22;269;48.884;9.192;2023-04-25T12:13:19;7.70;99.90
569;DHT22;269;48.884;9.192;2023-04-25T12:15:46;7.70;99.90
569;DHT22;269;48.884;9.192;2023-04-25T12:18:14;7.50;99.90
569;DHT22;269;48.884;9.192;2023-04-25T12:20:41;7.50;99.90
569;DHT22;269;48.884;9.192;2023-04-25T12:23:10;7.40;99.90
569;DHT22;269;48.884;9.192;2023-04-25T12:25:39;7.40;99.90
569;DHT22;269;48.884;9.192;2023-04-25T12:28:11;7.50;99.90
569;DHT22;269;48.884;9.192;2023-04-25T12:30:56;7.50;99.90
569;DHT22;269;48.884;9.192;2023-04-25T12:33:24;7.50;99.90
569;DHT22;269;48.884;9.192;2023-04-25T12:35:51;7.60;99.90
569;DHT22;269;48.884;9.192;2023-04-25T12:38:25;7.80;99.90
569;DHT22;269;48.884;9.192;2023-04-25T12:40:53;8.10;99.90
569;DHT22;269;48.884;9.192;2023-04-25T12:43:20;8.30;99.90
569;DHT22;269;48.884;9.192;2023-04-25T12:45:47;8.40;99.90
569;DHT22;269;48.884;9.192;2023-04-25T12:48:15;8.50;99.90
569;DHT22;269;48.884;9.192;2023-04-25T12:50:42;8.80;99.90
569;DHT22;269;48.884;9.192;2023-04-25T12:53:10;8.90;99.90
569;DHT22;269;48.884;9.192;2023-04-25T12:55:38;9.20;99.90
569;DHT22;269;48.884;9.192;2023-04-25T12:58:05;9.40;99.90
569;DHT22;269;48.884;9.192;2023-04-25T13:00:33;9.70;99.90
569;DHT22;269;48.884;9.192;2023-04-25T13:03:00;9.80;99.90
569;DHT22;269;48.884;9.192;2023-04-25T13:05:27;10.10;99.90
569;DHT22;269;48.884;9.192;2023-04-25T13:07:55;10.20;99.90
569;DHT22;269;48.884;9.192;2023-04-25T13:10:23;10.30;99.90
569;DHT22;269;48.884;9.192;2023-04-25T13:12:52;10.60;99.90
569;DHT22;269;48.884;9.192;2023-04-25T13:15:19;10.50;99.90
569;DHT22;269;48.884;9.192;2023-04-25T13:17:46;10.70;99.90
569;DHT22;269;48.884;9.192;2023-04-25T13:20:13;10.90;99.90
569;DHT22;269;48.884;9.192;2023-04-25T13:22:42;10.90;99.90
569;DHT22;269;48.884;9.192;2023-04-25T13:25:11;11.00;99.90
569;DHT22;269;48.884;9.192;2023-04-25T13:27:38;11.10;99.90
569;DHT22;269;48.884;9.192;2023-04-25T13:30:08;11.00;99.90
569;DHT22;269;48.884;9.192;2023-04-25T13:32:36;11.00;99.90
569;DHT22;269;48.884;9.192;2023-04-25T13:35:04;10.90;99.90
569;DHT22;269;48.884;9.192;2023-04-25T13:37:31;10.90;99.90
569;DHT22;269;48.884;9.192;2023-04-25T13:39:59;10.80;99.90
569;DHT22;269;48.884;9.192;2023-04-25T13:42:26;10.80;99.90
569;DHT22;269;48.884;9.192;2023-04-25T13:44:54;10.80;99.90
569;DHT22;269;48.884;9.192;2023-04-25T13:47:22;10.70;99.90
569;DHT22;269;48.884;9.192;2023-04-25T13:49:50;10.70;99.90
569;DHT22;269;48.884;9.192;2023-04-25T13:52:18;10.80;99.90
569;DHT22;269;48.884;9.192;2023-04-25T13:54:45;11.00;99.90
569;DHT22;269;48.884;9.192;2023-04-25T13:57:13;11.30;99.90
569;DHT22;269;48.884;9.192;2023-04-25T13:59:40;11.40;99.90
569;DHT22;269;48.884;9.192;2023-04-25T14:02:07;11.60;99.90
569;DHT22;269;48.884;9.192;2023-04-25T14:04:35;11.80;99.90
569;DHT22;269;48.884;9.192;2023-04-25T14:07:03;11.70;99.90
569;DHT22;269;48.884;9.192;2023-04-25T14:09:31;11.60;99.90
569;DHT22;269;48.884;9.192;2023-04-25T14:11:57;11.60;99.90
569;DHT22;269;48.884;9.192;2023-04-25T14:14:25;11.70;99.90
569;DHT22;269;48.884;9.192;2023-04-25T14:16:52;11.90;99.90
569;DHT22;269;48.884;9.192;2023-04-25T14:19:20;12.30;99.90
569;DHT22;269;48.884;9.192;2023-04-25T14:21:49;12.90;99.90
569;DHT22;269;48.884;9.192;2023-04-25T14:24:16;13.50;99.90
569;DHT22;269;48.884;9.192;2023-04-25T14:26:43;13.80;99.90
569;DHT22;269;48.884;9.192;2023-04-25T14:29:11;14.20;99.90
569;DHT22;269;48.884;9.192;2023-04-25T14:31:39;14.80;99.90
569;DHT22;269;48.884;9.192;2023-04-25T14:34:06;15.00;99.90
569;DHT22;269;48.884;9.192;2023-04-25T14:36:35;14.80;99.90
569;DHT22;269;48.884;9.192;2023-04-25T14:39:03;14.60;99.90
569;DHT22;269;48.884;9.192;2023-04-25T14:41:31;14.30;99.90
569;DHT22;269;48.884;9.192;2023-04-25T14:43:58;13.90;99.90
569;DHT22;269;48.884;9.192;2023-04-25T14:46:26;13.60;99.90
569;DHT22;269;48.884;9.192;2023-04-25T14:48:53;13.30;99.90
569;DHT22;269;48.884;9.192;2023-04-25T14:51:21;13.20;99.90
569;DHT22;269;48.884;9.192;2023-04-25T14:53:48;13.10;99.90
569;DHT22;269;48.884;9.192;2023-04-25T14:56:17;12.80;99.90
569;DHT22;269;48.884;9.192;2023-04-25T14:58:44;12.70;99.90
569;DHT22;269;48.884;9.192;2023-04-25T15:01:12;12.40;99.90
569;DHT22;269;48.884;9.192;2023-04-25T15:03:40;12.40;99.90
569;DHT22;269;48.884;9.192;2023-04-25T15:06:07;12.30;99.90
569;DHT22;269;48.884;9.192;2023-04-25T15:08:34;12.30;99.90
569;DHT22;269;48.884;9.192;2023-04-25T15:11:01;12.20;99.90
569;DHT22;269;48.884;9.192;2023-04-25T15:13:30;12.20;99.90
569;DHT22;269;48.884;9.192;2023-04-25T15:15:57;12.40;99.90
569;DHT22;269;48.884;9.192;2023-04-25T15:18:24;12.60;99.90
569;DHT22;269;48.884;9.192;2023-04-25T15:20:52;12.70;99.90
569;DHT22;269;48.884;9.192;2023-04-25T15:23:20;12.80;99.90
569;DHT22;269;48.884;9.192;2023-04-25T15:25:50;12.90;99.90
569;DHT22;269;48.884;9.192;2023-04-25T15:28:17;12.80;99.90
569;DHT22;269;48.884;9.192;2023-04-25T15:30:48;12.90;99.90
569;DHT22;269;48.884;9.192;2023-04-25T15:33:16;12.80;99.90
569;DHT22;269;48.884;9.192;2023-04-25T15:35:42;12.90;99.90
569;DHT22;269;48.884;9.192;2023-04-25T15:38:10;12.80;99.90
569;DHT22;269;48.884;9.192;2023-04-25T15:40:37;12.80;99.90
569;DHT22;269;48.884;9.192;2023-04-25T15:43:04;12.70;99.90
569;DHT22;269;48.884;9.192;2023-04-25T15:45:32;12.60;99.90
569;DHT22;269;48.884;9.192;2023-04-25T15:48:02;12.50;99.90
569;DHT22;269;48.884;9.192;2023-04-25T15:50:30;12.50;99.90
569;DHT22;269;48.884;9.192;2023-04-25T15:52:57;12.60;99.90
569;DHT22;269;48.884;9.192;2023-04-25T15:55:25;12.70;99.90
569;DHT22;269;48.884;9.192;2023-04-25T15:57:52;12.80;99.90
569;DHT22;269;48.884;9.192;2023-04-25T16:00:20;12.90;99.90
569;DHT22;269;48.884;9.192;2023-04-25T16:02:47;13.20;99.90
569;DHT22;269;48.884;9.192;2023-04-25T16:05:16;13.50;99.90
569;DHT22;269;48.884;9.192;2023-04-25T16:07:44;13.10;99.90
569;DHT22;269;48.884;9.192;2023-04-25T16:10:12;13.30;99.90
569;DHT22;269;48.884;9.192;2023-04-25T16:12:41;13.00;99.90
569;DHT22;269;48.884;9.192;2023-04-25T16:15:09;12.70;99.90
569;DHT22;269;48.884;9.192;2023-04-25T16:17:36;12.40;99.90
569;DHT22;269;48.884;9.192;2023-04-25T16:20:03;12.20;99.90
569;DHT22;269;48.884;9.192;2023-04-25T16:22:37;12.20;99.90
569;DHT22;269;48.884;9.192;2023-04-25T16:25:05;12.10;99.90
569;DHT22;269;48.884;9.192;2023-04-25T16:27:32;12.20;99.90
569;DHT22;269;48.884;9.192;2023-04-25T16:30:00;12.30;99.90
569;DHT22;269;48.884;9.192;2023-04-25T16:32:27;12.40;99.90
569;DHT22;269;48.884;9.192;2023-04-25T16:34:55;12.40;99.90
569;DHT22;269;48.884;9.192;2023-04-25T16:37:23;12.30;99.90
569;DHT22;269;48.884;9.192;2023-04-25T16:39:51;12.00;99.90
569;DHT22;269;48.884;9.192;2023-04-25T16:42:19;11.90;99.90
569;DHT22;269;48.884;9.192;2023-04-25T16:44:46;11.80;99.90
569;DHT22;269;48.884;9.192;2023-04-25T16:47:13;11.70;99.90
569;DHT22;269;48.884;9.192;2023-04-25T16:49:41;11.70;99.90